Quantico, VA

5:47 PM EST on December 19, 2014 (GMT -0500)
Quantico Marine Corps Air Facility | Change Station
CLOSE
Current Station
Airport
Location: Quantico,
Elevation: 10 ft
Nearby Weather Stations

Elev 10 ft 38.50 °N, 77.31 °W | Updated 51 minutes ago

Partly Cloudy
Partly Cloudy
38 °F
Feels Like 31 °F
N
10
Wind Variable Wind from NNW

Today
High -- | Low -- °F
--% Chance of Precip.
Yesterday
High -- | Low -- °F
Precip. -- in
7:21 AM 4:50 PM
Waning Crescent, 6% visible
Pressure 30.21 in
Visibility 10.0 miles
Clouds Scattered Clouds 4100 ft
Windchill 31 °F
Dew Point 22 °F
Humidity 53%
Rainfall 0.00 in
Snow Depth Not available.
UV 0 out of 12
Pollen .10 out of 12
Air Quality Not available.
Flu Activity Not available.
METAR KNYG 192156Z AUTO 33009KT 10SM SCT041 03/M06 A3021 RMK AO2 SLP230 T00331056 $

More Conditions Fewer Conditions

Pressure 30.21 in
Visibility 10.0 miles
Clouds Scattered Clouds 4100 ft
Windchill 31 °F
Dew Point 22 °F
Humidity 53%
Rainfall 0.00 in
Snow Depth Not available.
UV 0 out of 12
Pollen .10 out of 12
Air Quality Not available.
Flu Activity Not available.
METAR KNYG 192156Z AUTO 33009KT 10SM SCT041 03/M06 A3021 RMK AO2 SLP230 T00331056 $

More Conditions Fewer Conditions

10-Day Weather Forecast

Almanac

Astronomy

Dec. 19, 2014 Rise Set
Actual Time
Civil Twilight
Nautical Twilight
Astronomical Twilight
Moon
Length of Visible Light
Length of Day
Tomorrow will be .
, % of the Moon is Illuminated

Today's Extremes

State Highs State Lows

Community

WunderPhotos

Upload Photos

1,779,071 photos uploaded!

WunderBlogs® & News

Nearby

Air Quality

  Air Quality AQ Index Pollutant
Not available.

Snow Depth

Station Depth Elevation

Earthquake Activity

City Distance Mag. Time & Date
Minimum magnitude displayed is 2.5.

Coastal Water Temperatures

Place Temperature

Nearby Weather Stations